Kirishima, Japan
Current Conditions -  °F | °C
As of 7:00 AM on Wednesday 28 Jan 2015 (Local Time) from RJFK Reporting Station
Clear Clear  
Wind Chill: 34°   Ceiling: Unl
Heat Index: 39°   Visibility: 6mi
Dew Point: 28°   Wind: 7mph
Humidity: 65%   Direction: 300°WNW
Pressure: 30.12"   Gusts: NA
Location:  31.82°N, 130.77°E
Report Text: RJFK 272200Z 30006KT CAVOK 04/M02 Q1020
Loading
Personal Weather Stations






























Interactive Weather Map New forecast layout! Learn more

10-Day Weather Forecast

Advertisements
Track Severe Weather on mobile